sensor_id;sensor_type;location;lat;lon;timestamp;temperature;humidity
22706;DHT22;11520;51.198;4.468;2022-12-10T00:01:34;0.90;99.90
22706;DHT22;11520;51.198;4.468;2022-12-10T00:04:03;0.80;99.90
22706;DHT22;11520;51.198;4.468;2022-12-10T00:06:32;0.70;99.90
22706;DHT22;11520;51.198;4.468;2022-12-10T00:09:01;0.70;99.90
22706;DHT22;11520;51.198;4.468;2022-12-10T00:11:27;0.80;99.90
22706;DHT22;11520;51.198;4.468;2022-12-10T00:13:53;0.80;99.90
22706;DHT22;11520;51.198;4.468;2022-12-10T00:16:21;0.90;99.90
22706;DHT22;11520;51.198;4.468;2022-12-10T00:18:47;1.00;99.90
22706;DHT22;11520;51.198;4.468;2022-12-10T00:21:17;0.80;99.90
22706;DHT22;11520;51.198;4.468;2022-12-10T00:23:44;0.70;99.90
22706;DHT22;11520;51.198;4.468;2022-12-10T00:26:19;0.60;99.90
22706;DHT22;11520;51.198;4.468;2022-12-10T00:28:47;0.50;99.90
22706;DHT22;11520;51.198;4.468;2022-12-10T00:34:22;0.70;99.90
22706;DHT22;11520;51.198;4.468;2022-12-10T00:36:49;0.80;99.90
22706;DHT22;11520;51.198;4.468;2022-12-10T00:39:26;0.70;99.90
22706;DHT22;11520;51.198;4.468;2022-12-10T00:41:55;0.50;99.90
22706;DHT22;11520;51.198;4.468;2022-12-10T00:44:21;0.50;99.90
22706;DHT22;11520;51.198;4.468;2022-12-10T00:46:47;0.60;99.90
22706;DHT22;11520;51.198;4.468;2022-12-10T00:49:14;0.50;99.90
22706;DHT22;11520;51.198;4.468;2022-12-10T00:51:39;0.70;99.90
22706;DHT22;11520;51.198;4.468;2022-12-10T00:54:05;0.80;99.90
22706;DHT22;11520;51.198;4.468;2022-12-10T00:56:32;1.00;99.90
22706;DHT22;11520;51.198;4.468;2022-12-10T00:59:00;1.00;99.90
22706;DHT22;11520;51.198;4.468;2022-12-10T01:01:33;1.00;99.90
22706;DHT22;11520;51.198;4.468;2022-12-10T01:04:07;1.30;99.90
22706;DHT22;11520;51.198;4.468;2022-12-10T01:06:49;1.30;99.90
22706;DHT22;11520;51.198;4.468;2022-12-10T01:09:17;1.20;99.90
22706;DHT22;11520;51.198;4.468;2022-12-10T01:11:45;1.00;99.90
22706;DHT22;11520;51.198;4.468;2022-12-10T01:14:14;1.00;99.90
22706;DHT22;11520;51.198;4.468;2022-12-10T01:16:41;0.90;99.90
22706;DHT22;11520;51.198;4.468;2022-12-10T01:19:06;0.90;99.90
22706;DHT22;11520;51.198;4.468;2022-12-10T01:21:34;0.70;99.90
22706;DHT22;11520;51.198;4.468;2022-12-10T01:24:02;0.60;99.90
22706;DHT22;11520;51.198;4.468;2022-12-10T01:26:32;0.60;99.90
22706;DHT22;11520;51.198;4.468;2022-12-10T01:28:59;0.70;99.90
22706;DHT22;11520;51.198;4.468;2022-12-10T01:31:31;0.80;99.90
22706;DHT22;11520;51.198;4.468;2022-12-10T01:34:28;0.90;99.90
22706;DHT22;11520;51.198;4.468;2022-12-10T01:37:00;0.70;99.90
22706;DHT22;11520;51.198;4.468;2022-12-10T01:39:25;0.60;99.90
22706;DHT22;11520;51.198;4.468;2022-12-10T01:41:55;0.60;99.90
22706;DHT22;11520;51.198;4.468;2022-12-10T01:46:55;0.60;99.90
22706;DHT22;11520;51.198;4.468;2022-12-10T01:49:23;0.50;99.90
22706;DHT22;11520;51.198;4.468;2022-12-10T01:51:55;0.50;99.90
22706;DHT22;11520;51.198;4.468;2022-12-10T01:54:25;0.50;99.90
22706;DHT22;11520;51.198;4.468;2022-12-10T01:57:00;0.50;99.90
22706;DHT22;11520;51.198;4.468;2022-12-10T01:59:28;0.50;99.90
22706;DHT22;11520;51.198;4.468;2022-12-10T02:05:28;0.70;99.90
22706;DHT22;11520;51.198;4.468;2022-12-10T02:11:28;1.00;99.90
22706;DHT22;11520;51.198;4.468;2022-12-10T02:14:17;1.10;99.90
22706;DHT22;11520;51.198;4.468;2022-12-10T02:16:53;1.30;99.90
22706;DHT22;11520;51.198;4.468;2022-12-10T02:22:22;1.50;99.90
22706;DHT22;11520;51.198;4.468;2022-12-10T02:24:51;1.50;99.90
22706;DHT22;11520;51.198;4.468;2022-12-10T02:27:26;1.60;99.90
22706;DHT22;11520;51.198;4.468;2022-12-10T02:29:53;1.60;99.90
22706;DHT22;11520;51.198;4.468;2022-12-10T02:32:23;1.60;99.90
22706;DHT22;11520;51.198;4.468;2022-12-10T02:34:55;1.60;99.90
22706;DHT22;11520;51.198;4.468;2022-12-10T02:37:36;1.60;99.90
22706;DHT22;11520;51.198;4.468;2022-12-10T02:40:07;1.50;99.90
22706;DHT22;11520;51.198;4.468;2022-12-10T02:42:38;1.50;99.90
22706;DHT22;11520;51.198;4.468;2022-12-10T02:45:06;1.50;99.90
22706;DHT22;11520;51.198;4.468;2022-12-10T02:47:36;1.40;99.90
22706;DHT22;11520;51.198;4.468;2022-12-10T02:50:04;1.30;99.90
22706;DHT22;11520;51.198;4.468;2022-12-10T02:52:32;1.30;99.90
22706;DHT22;11520;51.198;4.468;2022-12-10T02:54:59;1.30;99.90
22706;DHT22;11520;51.198;4.468;2022-12-10T03:11:15;1.30;99.90
22706;DHT22;11520;51.198;4.468;2022-12-10T03:14:04;1.40;99.90
22706;DHT22;11520;51.198;4.468;2022-12-10T03:16:55;1.40;99.90
22706;DHT22;11520;51.198;4.468;2022-12-10T03:19:26;1.40;99.90
22706;DHT22;11520;51.198;4.468;2022-12-10T03:21:55;1.30;99.90
22706;DHT22;11520;51.198;4.468;2022-12-10T03:24:22;1.40;99.90
22706;DHT22;11520;51.198;4.468;2022-12-10T03:26:49;1.40;99.90
22706;DHT22;11520;51.198;4.468;2022-12-10T03:29:21;1.50;99.90
22706;DHT22;11520;51.198;4.468;2022-12-10T03:31:49;1.60;99.90
22706;DHT22;11520;51.198;4.468;2022-12-10T03:34:18;1.60;99.90
22706;DHT22;11520;51.198;4.468;2022-12-10T03:36:46;1.70;99.90
22706;DHT22;11520;51.198;4.468;2022-12-10T03:39:14;1.70;99.90
22706;DHT22;11520;51.198;4.468;2022-12-10T03:41:41;1.70;99.90
22706;DHT22;11520;51.198;4.468;2022-12-10T03:44:07;1.60;99.90
22706;DHT22;11520;51.198;4.468;2022-12-10T03:46:33;1.50;99.90
22706;DHT22;11520;51.198;4.468;2022-12-10T03:49:03;1.40;99.90
22706;DHT22;11520;51.198;4.468;2022-12-10T03:51:29;1.30;99.90
22706;DHT22;11520;51.198;4.468;2022-12-10T03:53:56;1.10;99.90
22706;DHT22;11520;51.198;4.468;2022-12-10T03:56:21;1.10;99.90
22706;DHT22;11520;51.198;4.468;2022-12-10T03:58:47;1.30;99.90
22706;DHT22;11520;51.198;4.468;2022-12-10T04:01:15;1.30;99.90
22706;DHT22;11520;51.198;4.468;2022-12-10T04:03:44;1.20;99.90
22706;DHT22;11520;51.198;4.468;2022-12-10T04:06:18;1.10;99.90
22706;DHT22;11520;51.198;4.468;2022-12-10T04:08:44;1.00;99.90
22706;DHT22;11520;51.198;4.468;2022-12-10T04:11:11;0.90;99.90
22706;DHT22;11520;51.198;4.468;2022-12-10T04:13:40;0.90;99.90
22706;DHT22;11520;51.198;4.468;2022-12-10T04:16:43;1.00;99.90
22706;DHT22;11520;51.198;4.468;2022-12-10T04:19:11;1.10;99.90
22706;DHT22;11520;51.198;4.468;2022-12-10T04:21:39;1.30;99.90
22706;DHT22;11520;51.198;4.468;2022-12-10T04:24:26;1.20;99.90
22706;DHT22;11520;51.198;4.468;2022-12-10T04:27:13;1.20;99.90
22706;DHT22;11520;51.198;4.468;2022-12-10T04:29:44;1.20;99.90
22706;DHT22;11520;51.198;4.468;2022-12-10T04:32:10;1.20;99.90
22706;DHT22;11520;51.198;4.468;2022-12-10T04:34:36;1.20;99.90
22706;DHT22;11520;51.198;4.468;2022-12-10T04:37:05;1.20;99.90
22706;DHT22;11520;51.198;4.468;2022-12-10T04:39:34;1.20;99.90
22706;DHT22;11520;51.198;4.468;2022-12-10T04:45:06;1.00;99.90
22706;DHT22;11520;51.198;4.468;2022-12-10T04:47:32;1.10;99.90
22706;DHT22;11520;51.198;4.468;2022-12-10T04:49:58;1.20;99.90
22706;DHT22;11520;51.198;4.468;2022-12-10T04:52:24;1.30;99.90
22706;DHT22;11520;51.198;4.468;2022-12-10T04:54:51;1.20;99.90
22706;DHT22;11520;51.198;4.468;2022-12-10T04:57:16;1.10;99.90
22706;DHT22;11520;51.198;4.468;2022-12-10T04:59:43;1.10;99.90
22706;DHT22;11520;51.198;4.468;2022-12-10T05:02:09;1.30;99.90
22706;DHT22;11520;51.198;4.468;2022-12-10T05:04:35;1.30;99.90
22706;DHT22;11520;51.198;4.468;2022-12-10T05:07:01;1.30;99.90
22706;DHT22;11520;51.198;4.468;2022-12-10T05:09:27;1.40;99.90
22706;DHT22;11520;51.198;4.468;2022-12-10T05:11:56;1.50;99.90
22706;DHT22;11520;51.198;4.468;2022-12-10T05:14:22;1.60;99.90
22706;DHT22;11520;51.198;4.468;2022-12-10T05:16:50;1.50;99.90
22706;DHT22;11520;51.198;4.468;2022-12-10T05:19:16;1.20;99.90
22706;DHT22;11520;51.198;4.468;2022-12-10T05:21:45;1.20;99.90
22706;DHT22;11520;51.198;4.468;2022-12-10T05:24:32;1.30;99.90
22706;DHT22;11520;51.198;4.468;2022-12-10T05:26:58;1.20;99.90
22706;DHT22;11520;51.198;4.468;2022-12-10T05:29:25;1.20;99.90
22706;DHT22;11520;51.198;4.468;2022-12-10T05:31:50;1.20;99.90
22706;DHT22;11520;51.198;4.468;2022-12-10T05:34:19;1.20;99.90
22706;DHT22;11520;51.198;4.468;2022-12-10T05:36:45;1.20;99.90
22706;DHT22;11520;51.198;4.468;2022-12-10T05:39:11;1.10;99.90
22706;DHT22;11520;51.198;4.468;2022-12-10T05:41:40;1.20;99.90
22706;DHT22;11520;51.198;4.468;2022-12-10T05:44:06;0.90;99.90
22706;DHT22;11520;51.198;4.468;2022-12-10T05:46:36;0.80;99.90
22706;DHT22;11520;51.198;4.468;2022-12-10T05:49:04;0.80;99.90
22706;DHT22;11520;51.198;4.468;2022-12-10T05:51:35;0.80;99.90
22706;DHT22;11520;51.198;4.468;2022-12-10T05:54:01;0.80;99.90
22706;DHT22;11520;51.198;4.468;2022-12-10T05:56:28;0.80;99.90
22706;DHT22;11520;51.198;4.468;2022-12-10T05:58:59;0.70;99.90
22706;DHT22;11520;51.198;4.468;2022-12-10T06:01:27;0.60;99.90
22706;DHT22;11520;51.198;4.468;2022-12-10T06:03:54;0.60;99.90
22706;DHT22;11520;51.198;4.468;2022-12-10T06:06:27;0.60;99.90
22706;DHT22;11520;51.198;4.468;2022-12-10T06:08:55;0.60;99.90
22706;DHT22;11520;51.198;4.468;2022-12-10T06:11:22;0.60;99.90
22706;DHT22;11520;51.198;4.468;2022-12-10T06:13:49;0.60;99.90
22706;DHT22;11520;51.198;4.468;2022-12-10T06:16:15;0.50;99.90
22706;DHT22;11520;51.198;4.468;2022-12-10T06:18:41;0.50;99.90
22706;DHT22;11520;51.198;4.468;2022-12-10T06:21:09;0.40;99.90
22706;DHT22;11520;51.198;4.468;2022-12-10T06:23:39;0.30;99.90
22706;DHT22;11520;51.198;4.468;2022-12-10T06:26:07;0.30;99.90
22706;DHT22;11520;51.198;4.468;2022-12-10T06:28:34;0.20;99.90
22706;DHT22;11520;51.198;4.468;2022-12-10T06:31:00;0.10;99.90
22706;DHT22;11520;51.198;4.468;2022-12-10T06:33:26;0.00;99.90
22706;DHT22;11520;51.198;4.468;2022-12-10T06:35:52;0.10;99.90
22706;DHT22;11520;51.198;4.468;2022-12-10T06:38:18;0.10;99.90
22706;DHT22;11520;51.198;4.468;2022-12-10T06:40:44;0.20;99.90
22706;DHT22;11520;51.198;4.468;2022-12-10T06:43:10;0.30;99.90
22706;DHT22;11520;51.198;4.468;2022-12-10T06:45:42;0.50;99.90
22706;DHT22;11520;51.198;4.468;2022-12-10T06:48:09;0.70;99.90
22706;DHT22;11520;51.198;4.468;2022-12-10T06:50:36;0.90;99.90
22706;DHT22;11520;51.198;4.468;2022-12-10T06:53:03;1.00;99.90
22706;DHT22;11520;51.198;4.468;2022-12-10T06:55:31;1.00;99.90
22706;DHT22;11520;51.198;4.468;2022-12-10T06:57:58;0.80;99.90
22706;DHT22;11520;51.198;4.468;2022-12-10T07:00:26;0.60;99.90
22706;DHT22;11520;51.198;4.468;2022-12-10T07:02:55;0.60;99.90
22706;DHT22;11520;51.198;4.468;2022-12-10T07:05:23;0.50;99.90
22706;DHT22;11520;51.198;4.468;2022-12-10T07:07:48;0.50;99.90
22706;DHT22;11520;51.198;4.468;2022-12-10T07:10:17;0.40;99.90
22706;DHT22;11520;51.198;4.468;2022-12-10T07:12:43;0.30;99.90
22706;DHT22;11520;51.198;4.468;2022-12-10T07:15:09;0.30;99.90
22706;DHT22;11520;51.198;4.468;2022-12-10T07:17:36;0.20;99.90
22706;DHT22;11520;51.198;4.468;2022-12-10T07:20:05;0.30;99.90
22706;DHT22;11520;51.198;4.468;2022-12-10T07:22:32;0.20;99.90
22706;DHT22;11520;51.198;4.468;2022-12-10T07:25:00;0.20;99.90
22706;DHT22;11520;51.198;4.468;2022-12-10T07:27:31;0.20;99.90
22706;DHT22;11520;51.198;4.468;2022-12-10T07:29:57;0.30;99.90
22706;DHT22;11520;51.198;4.468;2022-12-10T07:32:24;0.30;99.90
22706;DHT22;11520;51.198;4.468;2022-12-10T07:34:53;0.20;99.90
22706;DHT22;11520;51.198;4.468;2022-12-10T07:37:22;0.20;99.90
22706;DHT22;11520;51.198;4.468;2022-12-10T07:39:47;0.20;99.90
22706;DHT22;11520;51.198;4.468;2022-12-10T07:42:14;0.30;99.90
22706;DHT22;11520;51.198;4.468;2022-12-10T07:44:41;0.40;99.90
22706;DHT22;11520;51.198;4.468;2022-12-10T07:47:14;0.50;99.90
22706;DHT22;11520;51.198;4.468;2022-12-10T07:49:40;0.60;99.90
22706;DHT22;11520;51.198;4.468;2022-12-10T07:52:16;0.70;99.90
22706;DHT22;11520;51.198;4.468;2022-12-10T07:54:44;0.80;99.90
22706;DHT22;11520;51.198;4.468;2022-12-10T07:57:11;0.90;99.90
22706;DHT22;11520;51.198;4.468;2022-12-10T07:59:40;0.90;99.90
22706;DHT22;11520;51.198;4.468;2022-12-10T08:02:07;0.90;99.90
22706;DHT22;11520;51.198;4.468;2022-12-10T08:04:35;0.80;99.90
22706;DHT22;11520;51.198;4.468;2022-12-10T08:07:01;0.60;99.90
22706;DHT22;11520;51.198;4.468;2022-12-10T08:09:27;0.50;99.90
22706;DHT22;11520;51.198;4.468;2022-12-10T08:11:53;0.50;99.90
22706;DHT22;11520;51.198;4.468;2022-12-10T08:14:22;0.40;99.90
22706;DHT22;11520;51.198;4.468;2022-12-10T08:17:10;0.40;99.90
22706;DHT22;11520;51.198;4.468;2022-12-10T08:19:45;0.40;99.90
22706;DHT22;11520;51.198;4.468;2022-12-10T08:22:14;0.50;99.90
22706;DHT22;11520;51.198;4.468;2022-12-10T08:24:41;0.50;99.90
22706;DHT22;11520;51.198;4.468;2022-12-10T08:27:10;0.50;99.90
22706;DHT22;11520;51.198;4.468;2022-12-10T08:29:37;0.50;99.90
22706;DHT22;11520;51.198;4.468;2022-12-10T08:35:34;0.50;99.90
22706;DHT22;11520;51.198;4.468;2022-12-10T08:37:59;0.80;99.90
22706;DHT22;11520;51.198;4.468;2022-12-10T08:40:25;0.90;99.90
22706;DHT22;11520;51.198;4.468;2022-12-10T08:42:51;1.10;99.90
22706;DHT22;11520;51.198;4.468;2022-12-10T08:45:17;1.00;99.90
22706;DHT22;11520;51.198;4.468;2022-12-10T08:47:48;1.10;99.90
22706;DHT22;11520;51.198;4.468;2022-12-10T08:50:14;1.00;99.90
22706;DHT22;11520;51.198;4.468;2022-12-10T08:52:39;0.80;99.90
22706;DHT22;11520;51.198;4.468;2022-12-10T08:55:06;0.80;99.90
22706;DHT22;11520;51.198;4.468;2022-12-10T08:57:34;0.70;99.90
22706;DHT22;11520;51.198;4.468;2022-12-10T08:59:59;0.60;99.90
22706;DHT22;11520;51.198;4.468;2022-12-10T09:02:25;0.70;99.90
22706;DHT22;11520;51.198;4.468;2022-12-10T09:04:52;0.90;99.90
22706;DHT22;11520;51.198;4.468;2022-12-10T09:07:20;1.20;99.90
22706;DHT22;11520;51.198;4.468;2022-12-10T09:09:48;1.30;99.90
22706;DHT22;11520;51.198;4.468;2022-12-10T09:12:14;1.40;99.90
22706;DHT22;11520;51.198;4.468;2022-12-10T09:14:39;1.50;99.90
22706;DHT22;11520;51.198;4.468;2022-12-10T09:17:07;1.40;99.90
22706;DHT22;11520;51.198;4.468;2022-12-10T09:19:33;1.30;99.90
22706;DHT22;11520;51.198;4.468;2022-12-10T09:22:00;1.10;99.90
22706;DHT22;11520;51.198;4.468;2022-12-10T09:24:29;1.20;99.90
22706;DHT22;11520;51.198;4.468;2022-12-10T09:26:54;1.20;99.90
22706;DHT22;11520;51.198;4.468;2022-12-10T09:29:22;1.20;99.90
22706;DHT22;11520;51.198;4.468;2022-12-10T09:31:52;1.10;99.90
22706;DHT22;11520;51.198;4.468;2022-12-10T09:34:18;1.00;99.90
22706;DHT22;11520;51.198;4.468;2022-12-10T09:36:44;1.10;99.90
22706;DHT22;11520;51.198;4.468;2022-12-10T09:39:11;0.90;99.90
22706;DHT22;11520;51.198;4.468;2022-12-10T09:47:10;1.00;99.90
22706;DHT22;11520;51.198;4.468;2022-12-10T09:50:02;1.00;99.90
22706;DHT22;11520;51.198;4.468;2022-12-10T09:52:36;1.00;99.90
22706;DHT22;11520;51.198;4.468;2022-12-10T09:55:12;1.00;99.90
22706;DHT22;11520;51.198;4.468;2022-12-10T09:57:42;1.10;99.90
22706;DHT22;11520;51.198;4.468;2022-12-10T10:00:22;1.20;99.90
22706;DHT22;11520;51.198;4.468;2022-12-10T10:02:53;1.30;99.90
22706;DHT22;11520;51.198;4.468;2022-12-10T10:05:42;1.20;99.90
22706;DHT22;11520;51.198;4.468;2022-12-10T10:08:34;1.40;99.90
22706;DHT22;11520;51.198;4.468;2022-12-10T10:11:00;1.60;99.90
22706;DHT22;11520;51.198;4.468;2022-12-10T10:13:55;1.80;99.90
22706;DHT22;11520;51.198;4.468;2022-12-10T10:16:48;1.90;99.90
22706;DHT22;11520;51.198;4.468;2022-12-10T10:19:18;2.00;99.90
22706;DHT22;11520;51.198;4.468;2022-12-10T10:21:48;2.10;99.90
22706;DHT22;11520;51.198;4.468;2022-12-10T10:24:23;2.30;99.90
22706;DHT22;11520;51.198;4.468;2022-12-10T10:26:58;2.30;99.90
22706;DHT22;11520;51.198;4.468;2022-12-10T10:29:28;2.00;99.90
22706;DHT22;11520;51.198;4.468;2022-12-10T10:32:18;1.70;99.90
22706;DHT22;11520;51.198;4.468;2022-12-10T10:34:46;1.60;99.90
22706;DHT22;11520;51.198;4.468;2022-12-10T10:37:26;1.70;99.90
22706;DHT22;11520;51.198;4.468;2022-12-10T10:39:55;1.80;99.90
22706;DHT22;11520;51.198;4.468;2022-12-10T10:42:37;2.00;99.90
22706;DHT22;11520;51.198;4.468;2022-12-10T10:45:35;2.10;99.90
22706;DHT22;11520;51.198;4.468;2022-12-10T10:48:25;2.20;99.90
22706;DHT22;11520;51.198;4.468;2022-12-10T10:56:16;1.80;99.90
22706;DHT22;11520;51.198;4.468;2022-12-10T11:01:51;1.50;99.90
22706;DHT22;11520;51.198;4.468;2022-12-10T11:04:31;1.50;99.90
22706;DHT22;11520;51.198;4.468;2022-12-10T11:07:34;1.40;99.90
22706;DHT22;11520;51.198;4.468;2022-12-10T11:10:00;1.70;99.90
22706;DHT22;11520;51.198;4.468;2022-12-10T11:12:33;1.90;99.90
22706;DHT22;11520;51.198;4.468;2022-12-10T11:14:59;2.00;99.90
22706;DHT22;11520;51.198;4.468;2022-12-10T11:17:27;2.10;99.90
22706;DHT22;11520;51.198;4.468;2022-12-10T11:20:02;2.00;99.90
22706;DHT22;11520;51.198;4.468;2022-12-10T11:23:12;2.00;99.90
22706;DHT22;11520;51.198;4.468;2022-12-10T11:45:42;2.20;99.90
22706;DHT22;11520;51.198;4.468;2022-12-10T11:57:05;2.20;99.90
22706;DHT22;11520;51.198;4.468;2022-12-10T12:00:05;2.20;99.90
22706;DHT22;11520;51.198;4.468;2022-12-10T12:05:52;2.20;99.90
22706;DHT22;11520;51.198;4.468;2022-12-10T12:08:54;2.30;99.90
22706;DHT22;11520;51.198;4.468;2022-12-10T12:11:45;2.30;99.90
22706;DHT22;11520;51.198;4.468;2022-12-10T12:20:34;2.20;99.90
22706;DHT22;11520;51.198;4.468;2022-12-10T12:26:13;2.20;99.90
22706;DHT22;11520;51.198;4.468;2022-12-10T12:28:54;2.40;99.90
22706;DHT22;11520;51.198;4.468;2022-12-10T12:31:35;2.60;99.90
22706;DHT22;11520;51.198;4.468;2022-12-10T12:36:44;2.70;99.90
22706;DHT22;11520;51.198;4.468;2022-12-10T12:42:31;2.60;99.90
22706;DHT22;11520;51.198;4.468;2022-12-10T12:45:17;2.60;99.90
22706;DHT22;11520;51.198;4.468;2022-12-10T12:48:01;2.50;99.90
22706;DHT22;11520;51.198;4.468;2022-12-10T12:50:40;2.50;99.90
22706;DHT22;11520;51.198;4.468;2022-12-10T12:53:11;2.60;99.90
22706;DHT22;11520;51.198;4.468;2022-12-10T13:01:47;2.50;99.90
22706;DHT22;11520;51.198;4.468;2022-12-10T13:04:20;2.50;99.90
22706;DHT22;11520;51.198;4.468;2022-12-10T13:19:28;3.10;99.90
22706;DHT22;11520;51.198;4.468;2022-12-10T13:22:05;3.20;99.90
22706;DHT22;11520;51.198;4.468;2022-12-10T13:24:45;3.40;99.90
22706;DHT22;11520;51.198;4.468;2022-12-10T13:27:33;3.40;99.90
22706;DHT22;11520;51.198;4.468;2022-12-10T13:30:33;3.20;99.90
22706;DHT22;11520;51.198;4.468;2022-12-10T13:33:14;3.10;99.90
22706;DHT22;11520;51.198;4.468;2022-12-10T13:35:55;3.20;99.90
22706;DHT22;11520;51.198;4.468;2022-12-10T13:38:25;3.30;99.90
22706;DHT22;11520;51.198;4.468;2022-12-10T13:41:02;3.50;99.90
22706;DHT22;11520;51.198;4.468;2022-12-10T13:43:57;3.60;99.90
22706;DHT22;11520;51.198;4.468;2022-12-10T13:46:56;3.30;99.90
22706;DHT22;11520;51.198;4.468;2022-12-10T13:49:25;3.30;99.90
22706;DHT22;11520;51.198;4.468;2022-12-10T14:00:17;3.40;99.90
22706;DHT22;11520;51.198;4.468;2022-12-10T14:06:00;3.00;99.90
22706;DHT22;11520;51.198;4.468;2022-12-10T14:08:34;3.00;99.90
22706;DHT22;11520;51.198;4.468;2022-12-10T14:11:02;2.90;99.90
22706;DHT22;11520;51.198;4.468;2022-12-10T14:13:52;2.90;99.90
22706;DHT22;11520;51.198;4.468;2022-12-10T14:16:22;2.80;99.90
22706;DHT22;11520;51.198;4.468;2022-12-10T14:18:57;2.80;99.90
22706;DHT22;11520;51.198;4.468;2022-12-10T14:21:27;2.70;99.90
22706;DHT22;11520;51.198;4.468;2022-12-10T14:23:56;2.80;99.90
22706;DHT22;11520;51.198;4.468;2022-12-10T14:26:35;2.80;99.90
22706;DHT22;11520;51.198;4.468;2022-12-10T14:29:18;2.70;99.90
22706;DHT22;11520;51.198;4.468;2022-12-10T14:31:47;2.60;99.90
22706;DHT22;11520;51.198;4.468;2022-12-10T14:34:21;2.70;99.90
22706;DHT22;11520;51.198;4.468;2022-12-10T14:36:52;2.80;99.90
22706;DHT22;11520;51.198;4.468;2022-12-10T14:39:26;2.80;99.90
22706;DHT22;11520;51.198;4.468;2022-12-10T14:41:59;2.70;99.90
22706;DHT22;11520;51.198;4.468;2022-12-10T14:44:27;2.60;99.90
22706;DHT22;11520;51.198;4.468;2022-12-10T14:47:17;2.70;99.90
22706;DHT22;11520;51.198;4.468;2022-12-10T14:49:47;2.60;99.90
22706;DHT22;11520;51.198;4.468;2022-12-10T14:52:15;2.60;99.90
22706;DHT22;11520;51.198;4.468;2022-12-10T14:54:42;2.70;99.90
22706;DHT22;11520;51.198;4.468;2022-12-10T14:57:34;2.60;99.90
22706;DHT22;11520;51.198;4.468;2022-12-10T15:00:19;2.50;99.90
22706;DHT22;11520;51.198;4.468;2022-12-10T15:02:58;2.60;99.90
22706;DHT22;11520;51.198;4.468;2022-12-10T15:05:30;2.70;99.90
22706;DHT22;11520;51.198;4.468;2022-12-10T15:07:57;2.70;99.90
22706;DHT22;11520;51.198;4.468;2022-12-10T15:10:59;2.70;99.90
22706;DHT22;11520;51.198;4.468;2022-12-10T15:13:32;2.70;99.90
22706;DHT22;11520;51.198;4.468;2022-12-10T15:15:59;2.70;99.90
22706;DHT22;11520;51.198;4.468;2022-12-10T15:18:33;2.70;99.90
22706;DHT22;11520;51.198;4.468;2022-12-10T15:27:55;2.50;99.90
22706;DHT22;11520;51.198;4.468;2022-12-10T15:30:38;2.50;99.90
22706;DHT22;11520;51.198;4.468;2022-12-10T15:33:30;2.60;99.90
22706;DHT22;11520;51.198;4.468;2022-12-10T15:35:59;2.60;99.90
22706;DHT22;11520;51.198;4.468;2022-12-10T15:38:32;2.70;99.90
22706;DHT22;11520;51.198;4.468;2022-12-10T15:41:21;2.60;99.90
22706;DHT22;11520;51.198;4.468;2022-12-10T15:46:50;2.50;99.90
22706;DHT22;11520;51.198;4.468;2022-12-10T15:49:18;2.60;99.90
22706;DHT22;11520;51.198;4.468;2022-12-10T15:51:44;2.60;99.90
22706;DHT22;11520;51.198;4.468;2022-12-10T15:54:32;2.60;99.90
22706;DHT22;11520;51.198;4.468;2022-12-10T15:56:59;2.70;99.90
22706;DHT22;11520;51.198;4.468;2022-12-10T15:59:28;2.80;99.90
22706;DHT22;11520;51.198;4.468;2022-12-10T16:01:54;2.90;99.90
22706;DHT22;11520;51.198;4.468;2022-12-10T16:04:21;3.00;99.90
22706;DHT22;11520;51.198;4.468;2022-12-10T16:06:53;3.10;99.90
22706;DHT22;11520;51.198;4.468;2022-12-10T16:09:18;3.20;99.90
22706;DHT22;11520;51.198;4.468;2022-12-10T16:11:44;3.20;99.90
22706;DHT22;11520;51.198;4.468;2022-12-10T16:14:11;3.30;99.90
22706;DHT22;11520;51.198;4.468;2022-12-10T16:16:41;3.20;99.90
22706;DHT22;11520;51.198;4.468;2022-12-10T16:19:11;3.10;99.90
22706;DHT22;11520;51.198;4.468;2022-12-10T16:21:39;3.00;99.90
22706;DHT22;11520;51.198;4.468;2022-12-10T16:24:28;2.90;99.90
22706;DHT22;11520;51.198;4.468;2022-12-10T16:26:55;2.90;99.90
22706;DHT22;11520;51.198;4.468;2022-12-10T16:29:23;2.80;99.90
22706;DHT22;11520;51.198;4.468;2022-12-10T16:31:49;2.80;99.90
22706;DHT22;11520;51.198;4.468;2022-12-10T16:34:16;2.90;99.90
22706;DHT22;11520;51.198;4.468;2022-12-10T16:36:44;3.00;99.90
22706;DHT22;11520;51.198;4.468;2022-12-10T16:39:11;3.00;99.90
22706;DHT22;11520;51.198;4.468;2022-12-10T16:41:42;2.90;99.90
22706;DHT22;11520;51.198;4.468;2022-12-10T16:44:12;2.90;99.90
22706;DHT22;11520;51.198;4.468;2022-12-10T16:46:59;2.90;99.90
22706;DHT22;11520;51.198;4.468;2022-12-10T16:49:26;3.00;99.90
22706;DHT22;11520;51.198;4.468;2022-12-10T16:51:52;3.00;99.90
22706;DHT22;11520;51.198;4.468;2022-12-10T16:54:54;3.00;99.90
22706;DHT22;11520;51.198;4.468;2022-12-10T16:57:41;3.00;99.90
22706;DHT22;11520;51.198;4.468;2022-12-10T17:00:09;2.90;99.90
22706;DHT22;11520;51.198;4.468;2022-12-10T17:02:35;2.80;99.90
22706;DHT22;11520;51.198;4.468;2022-12-10T17:05:17;2.80;99.90
22706;DHT22;11520;51.198;4.468;2022-12-10T17:08:25;2.90;99.90
22706;DHT22;11520;51.198;4.468;2022-12-10T17:10:54;2.80;99.90
22706;DHT22;11520;51.198;4.468;2022-12-10T17:13:44;2.80;99.90
22706;DHT22;11520;51.198;4.468;2022-12-10T17:16:37;2.90;99.90
22706;DHT22;11520;51.198;4.468;2022-12-10T17:19:43;2.90;99.90
22706;DHT22;11520;51.198;4.468;2022-12-10T17:22:16;2.90;99.90
22706;DHT22;11520;51.198;4.468;2022-12-10T17:24:45;2.80;99.90
22706;DHT22;11520;51.198;4.468;2022-12-10T17:27:16;2.80;99.90
22706;DHT22;11520;51.198;4.468;2022-12-10T17:29:44;2.70;99.90
22706;DHT22;11520;51.198;4.468;2022-12-10T17:32:30;2.70;99.90
22706;DHT22;11520;51.198;4.468;2022-12-10T17:35:34;2.70;99.90
22706;DHT22;11520;51.198;4.468;2022-12-10T17:38:25;2.60;99.90
22706;DHT22;11520;51.198;4.468;2022-12-10T17:40:54;2.70;99.90
22706;DHT22;11520;51.198;4.468;2022-12-10T17:43:24;2.70;99.90
22706;DHT22;11520;51.198;4.468;2022-12-10T17:45:58;2.80;99.90
22706;DHT22;11520;51.198;4.468;2022-12-10T17:48:37;2.80;99.90
22706;DHT22;11520;51.198;4.468;2022-12-10T17:51:28;2.80;99.90
22706;DHT22;11520;51.198;4.468;2022-12-10T17:53:57;2.70;99.90
22706;DHT22;11520;51.198;4.468;2022-12-10T17:56:29;2.70;99.90
22706;DHT22;11520;51.198;4.468;2022-12-10T17:59:12;2.70;99.90
22706;DHT22;11520;51.198;4.468;2022-12-10T18:01:41;2.80;99.90
22706;DHT22;11520;51.198;4.468;2022-12-10T18:04:27;2.90;99.90
22706;DHT22;11520;51.198;4.468;2022-12-10T18:07:01;3.10;99.90
22706;DHT22;11520;51.198;4.468;2022-12-10T18:09:33;2.90;99.90
22706;DHT22;11520;51.198;4.468;2022-12-10T18:12:01;2.80;99.90
22706;DHT22;11520;51.198;4.468;2022-12-10T18:14:27;2.80;99.90
22706;DHT22;11520;51.198;4.468;2022-12-10T18:16:53;2.80;99.90
22706;DHT22;11520;51.198;4.468;2022-12-10T18:19:19;2.80;99.90
22706;DHT22;11520;51.198;4.468;2022-12-10T18:21:44;3.00;99.90
22706;DHT22;11520;51.198;4.468;2022-12-10T18:24:11;2.90;99.90
22706;DHT22;11520;51.198;4.468;2022-12-10T18:27:04;2.90;99.90
22706;DHT22;11520;51.198;4.468;2022-12-10T18:29:32;2.90;99.90
22706;DHT22;11520;51.198;4.468;2022-12-10T18:32:00;2.90;99.90
22706;DHT22;11520;51.198;4.468;2022-12-10T18:34:27;2.80;99.90